Time;durP1;ratioP1;P1;durP2;ratioP2;P2;SDS_P1;SDS_P2;PMS_P1;PMS_P2;Temp;Humidity;BMP_temperature;BMP_pressure;BME280_temperature;BME280_humidity;BME280_pressure;Samples;Min_cycle;Max_cycle;Signal;HPM_P1;HPM_P2
2023/04/23 00:01:09;;;;;;;7.30;5.67;;;15.50;99.90;;;;;;5019680;28;20702;-51
2023/04/23 00:03:39;;;;;;;6.10;5.53;;;15.50;99.90;;;;;;5035073;28;20230;-51
2023/04/23 00:06:10;;;;;;;5.73;5.33;;;15.50;99.90;;;;;;5029637;28;20273;-53
2023/04/23 00:08:39;;;;;;;6.37;5.47;;;15.50;99.90;;;;;;5028464;28;20218;-52
2023/04/23 00:11:07;;;;;;;6.37;5.87;;;15.50;99.90;;;;;;5023484;28;20190;-53
2023/04/23 00:13:34;;;;;;;6.03;5.50;;;15.40;99.90;;;;;;5019738;28;20930;-50
2023/04/23 00:16:02;;;;;;;5.47;5.03;;;15.40;99.90;;;;;;5037988;28;20210;-52
2023/04/23 00:18:29;;;;;;;6.77;5.83;;;15.40;99.90;;;;;;5012997;28;20273;-50
2023/04/23 00:20:56;;;;;;;6.83;6.23;;;15.40;99.90;;;;;;5036263;28;20207;-48
2023/04/23 00:23:25;;;;;;;6.17;5.67;;;15.30;99.90;;;;;;5024787;28;20211;-52
2023/04/23 00:25:51;;;;;;;5.67;5.17;;;15.30;99.90;;;;;;5037213;28;20221;-50
2023/04/23 00:28:18;;;;;;;6.70;6.20;;;15.40;99.90;;;;;;5028381;28;20262;-51
2023/04/23 00:30:45;;;;;;;6.40;5.73;;;15.40;99.90;;;;;;5031154;28;20183;-48
2023/04/23 00:33:12;;;;;;;9.10;5.87;;;15.30;99.90;;;;;;5013363;28;20219;-49
2023/04/23 00:35:39;;;;;;;6.67;6.10;;;15.30;99.90;;;;;;5018563;28;20282;-52
2023/04/23 00:38:06;;;;;;;7.43;6.43;;;15.30;99.90;;;;;;5011861;28;20258;-51
2023/04/23 00:40:35;;;;;;;7.37;6.67;;;15.30;99.90;;;;;;5036207;28;20718;-52
2023/04/23 00:43:02;;;;;;;7.40;6.77;;;15.30;99.90;;;;;;5027992;28;20192;-48
2023/04/23 00:45:29;;;;;;;7.83;7.03;;;15.20;99.90;;;;;;5028833;28;20219;-50
2023/04/23 00:47:57;;;;;;;7.60;7.00;;;14.90;99.90;;;;;;5039717;28;20270;-48
2023/04/23 00:50:24;;;;;;;7.10;6.50;;;15.10;99.90;;;;;;5015602;28;20203;-50
2023/04/23 00:52:51;;;;;;;7.80;7.00;;;15.10;99.90;;;;;;5023582;28;20325;-49
2023/04/23 00:55:19;;;;;;;7.97;7.03;;;15.10;99.90;;;;;;5032993;28;20223;-54
2023/04/23 00:57:48;;;;;;;8.40;7.33;;;15.10;99.90;;;;;;5030550;28;20195;-49
2023/04/23 01:00:16;;;;;;;8.47;7.67;;;15.10;99.90;;;;;;5027285;28;20208;-52
2023/04/23 01:02:44;;;;;;;8.23;7.40;;;15.10;99.90;;;;;;5027975;28;20195;-51
2023/04/23 01:05:13;;;;;;;8.93;8.13;;;15.00;99.90;;;;;;5008570;28;20223;-51
2023/04/23 01:07:41;;;;;;;8.97;8.17;;;15.00;99.90;;;;;;5027560;28;20187;-52
2023/04/23 01:10:10;;;;;;;9.40;8.60;;;14.90;99.90;;;;;;5025312;28;20252;-50
2023/04/23 01:12:37;;;;;;;9.63;8.63;;;14.90;99.90;;;;;;5035538;28;20394;-49
2023/04/23 01:15:07;;;;;;;8.77;7.97;;;14.90;99.90;;;;;;5029205;28;20761;-50
2023/04/23 01:17:34;;;;;;;9.27;8.47;;;14.90;99.90;;;;;;5028534;28;20187;-52
2023/04/23 01:20:01;;;;;;;9.50;8.67;;;14.80;99.90;;;;;;5026234;28;20191;-50
2023/04/23 01:22:29;;;;;;;9.20;8.40;;;14.90;99.90;;;;;;5017401;28;20204;-53
2023/04/23 01:24:56;;;;;;;8.67;7.87;;;14.80;99.90;;;;;;5038050;28;20223;-51
2023/04/23 01:27:24;;;;;;;9.13;8.33;;;14.80;99.90;;;;;;5030808;28;20243;-52
2023/04/23 01:29:51;;;;;;;9.77;8.87;;;14.80;99.90;;;;;;5030347;28;20880;-50
2023/04/23 01:32:19;;;;;;;9.53;8.63;;;14.70;99.90;;;;;;5020731;28;20190;-54
2023/04/23 01:34:47;;;;;;;11.57;9.40;;;14.70;99.90;;;;;;5018474;28;20954;-52
2023/04/23 01:37:16;;;;;;;9.63;8.77;;;14.70;99.90;;;;;;5013018;28;20226;-52
2023/04/23 01:39:45;;;;;;;10.57;9.50;;;14.70;99.90;;;;;;5035023;28;20495;-50
2023/04/23 01:42:12;;;;;;;11.60;10.47;;;14.70;99.90;;;;;;5021598;28;20199;-47
2023/04/23 01:44:39;;;;;;;10.33;9.33;;;14.70;99.90;;;;;;5027871;28;20945;-51
2023/04/23 01:47:06;;;;;;;10.80;9.80;;;14.60;99.90;;;;;;5023951;28;20242;-53
2023/04/23 01:49:33;;;;;;;11.87;10.63;;;14.60;99.90;;;;;;5035773;28;20195;-52
2023/04/23 01:52:00;;;;;;;12.00;10.83;;;14.60;99.90;;;;;;5021664;28;20273;-48
2023/04/23 01:54:27;;;;;;;12.10;10.90;;;14.60;99.90;;;;;;5033445;28;20230;-53
2023/04/23 01:56:56;;;;;;;11.80;10.60;;;14.60;99.90;;;;;;5024390;28;20271;-53
2023/04/23 01:59:23;;;;;;;16.67;14.63;;;14.50;99.90;;;;;;5022542;28;20916;-55
2023/04/23 02:01:50;;;;;;;21.83;19.00;;;14.20;99.90;;;;;;5012770;28;20192;-50
2023/04/23 02:04:17;;;;;;;25.97;21.70;;;13.60;99.90;;;;;;5026306;28;20235;-54
2023/04/23 02:06:48;;;;;;;26.73;22.40;;;13.20;99.90;;;;;;5024782;28;20219;-50
2023/04/23 02:09:15;;;;;;;26.60;23.17;;;12.90;99.90;;;;;;5020306;28;20705;-51
2023/04/23 02:11:42;;;;;;;27.30;23.33;;;12.70;99.90;;;;;;5030963;28;20466;-52
2023/04/23 02:14:11;;;;;;;32.83;25.13;;;12.70;99.90;;;;;;5023137;28;20933;-50
2023/04/23 02:16:38;;;;;;;28.47;23.83;;;12.40;99.90;;;;;;5013437;28;20196;-53
2023/04/23 02:19:05;;;;;;;32.93;25.53;;;12.30;99.90;;;;;;5029458;28;20238;-54
2023/04/23 02:21:32;;;;;;;31.93;25.27;;;12.20;99.90;;;;;;5028757;28;20623;-49
2023/04/23 02:23:59;;;;;;;33.50;25.87;;;12.10;99.90;;;;;;5011976;28;20219;-53
2023/04/23 02:26:27;;;;;;;30.97;24.87;;;12.00;99.90;;;;;;5036639;28;20223;-50
2023/04/23 02:28:54;;;;;;;29.77;25.07;;;12.00;99.90;;;;;;5020995;28;20212;-54
2023/04/23 02:31:22;;;;;;;30.97;24.20;;;11.90;99.90;;;;;;5035209;28;20198;-46
2023/04/23 02:33:50;;;;;;;30.37;24.73;;;11.70;99.90;;;;;;5028799;28;20208;-54
2023/04/23 02:36:35;;;;;;;29.63;24.93;;;11.80;99.90;;;;;;5018479;28;20783;-53
2023/04/23 02:39:05;;;;;;;33.53;25.63;;;11.60;99.90;;;;;;5018515;28;20311;-46
2023/04/23 02:41:32;;;;;;;33.07;24.83;;;11.60;99.90;;;;;;5019181;28;20894;-51
2023/04/23 02:43:59;;;;;;;33.37;26.50;;;11.60;99.90;;;;;;5020268;28;20200;-50
2023/04/23 02:46:28;;;;;;;33.60;26.17;;;11.50;99.90;;;;;;5023310;28;20215;-55
2023/04/23 02:48:55;;;;;;;34.33;25.97;;;11.40;99.90;;;;;;5032125;28;20203;-55
2023/04/23 02:51:22;;;;;;;34.33;26.57;;;11.40;99.90;;;;;;5033249;28;20253;-53
2023/04/23 02:53:49;;;;;;;35.87;27.07;;;11.30;99.90;;;;;;5039179;28;20211;-48
2023/04/23 02:56:16;;;;;;;34.13;26.80;;;11.30;99.90;;;;;;5009630;28;20221;-53
2023/04/23 02:58:44;;;;;;;32.70;26.23;;;11.30;99.90;;;;;;5024589;28;20200;-52
2023/04/23 03:01:11;;;;;;;37.23;27.73;;;11.20;99.90;;;;;;5024204;28;20214;-51
2023/04/23 03:03:39;;;;;;;38.10;27.03;;;11.20;99.90;;;;;;5024460;28;20210;-52
2023/04/23 03:06:07;;;;;;;36.20;26.30;;;11.20;99.90;;;;;;5025032;28;20227;-51
2023/04/23 03:08:35;;;;;;;40.63;29.10;;;11.10;99.90;;;;;;5032569;28;20249;-50
2023/04/23 03:11:02;;;;;;;38.13;27.63;;;11.10;99.90;;;;;;4999690;28;20215;-49
2023/04/23 03:13:29;;;;;;;39.37;26.60;;;11.10;99.90;;;;;;5039684;28;20241;-54
2023/04/23 03:15:57;;;;;;;41.03;27.63;;;11.00;99.90;;;;;;5027806;28;20318;-52
2023/04/23 03:18:25;;;;;;;35.93;27.10;;;11.00;99.90;;;;;;5038561;28;20273;-51
2023/04/23 03:20:55;;;;;;;36.90;24.23;;;11.00;99.90;;;;;;5024153;28;20699;-54
2023/04/23 03:23:22;;;;;;;35.13;25.83;;;11.00;99.90;;;;;;5018426;28;20187;-53
2023/04/23 03:25:50;;;;;;;33.33;24.20;;;11.00;99.90;;;;;;5026388;28;20288;-53
2023/04/23 03:28:17;;;;;;;35.47;24.27;;;11.00;99.90;;;;;;5014711;28;20218;-54
2023/04/23 03:30:44;;;;;;;34.43;24.10;;;10.90;99.90;;;;;;5031775;28;20204;-53
2023/04/23 03:33:11;;;;;;;24.70;20.23;;;10.90;99.90;;;;;;5036156;28;20198;-52
2023/04/23 03:35:39;;;;;;;23.17;18.93;;;10.80;99.90;;;;;;5027616;28;20232;-49
2023/04/23 03:38:12;;;;;;;22.03;18.10;;;10.70;99.90;;;;;;5021982;28;20191;-52
2023/04/23 03:40:40;;;;;;;21.80;16.13;;;10.70;99.90;;;;;;5030962;28;20196;-53
2023/04/23 03:43:08;;;;;;;21.17;15.50;;;10.70;99.90;;;;;;5018645;28;20210;-50
2023/04/23 03:45:55;;;;;;;17.50;12.97;;;10.60;99.90;;;;;;5033902;28;20223;-54
2023/04/23 03:48:23;;;;;;;18.90;13.60;;;10.60;99.90;;;;;;5026652;28;20269;-55
2023/04/23 03:50:50;;;;;;;14.80;11.07;;;10.50;99.90;;;;;;5020861;28;20207;-49
2023/04/23 03:53:34;;;;;;;13.70;10.87;;;10.50;99.90;;;;;;5028710;28;20300;-52
2023/04/23 03:56:28;;;;;;;14.10;9.67;;;10.40;99.90;;;;;;5000431;28;20208;-55
2023/04/23 03:59:10;;;;;;;10.17;8.80;;;10.40;99.90;;;;;;5032342;28;20203;-52
2023/04/23 04:01:37;;;;;;;9.93;8.93;;;10.40;99.90;;;;;;5036934;28;20200;-52
2023/04/23 04:04:04;;;;;;;10.73;8.63;;;10.40;99.90;;;;;;5026536;28;20713;-50
2023/04/23 04:06:32;;;;;;;11.77;8.73;;;10.40;99.90;;;;;;5024015;28;20219;-55
2023/04/23 04:09:01;;;;;;;8.73;7.63;;;10.30;99.90;;;;;;5042553;28;20570;-52
2023/04/23 04:11:28;;;;;;;9.43;7.70;;;10.30;99.90;;;;;;5038902;28;20237;-54
2023/04/23 04:13:55;;;;;;;10.33;7.53;;;10.20;99.90;;;;;;5022036;28;20207;-55
2023/04/23 04:16:22;;;;;;;10.07;7.93;;;10.30;99.90;;;;;;5035776;28;20963;-54
2023/04/23 04:18:50;;;;;;;9.93;6.60;;;10.30;99.90;;;;;;5020326;28;20219;-51
2023/04/23 04:21:18;;;;;;;10.07;7.33;;;10.30;99.90;;;;;;5024090;28;20203;-53
2023/04/23 04:23:46;;;;;;;10.60;7.10;;;10.20;99.90;;;;;;5043886;28;20191;-55
2023/04/23 04:26:14;;;;;;;6.87;5.90;;;10.30;99.90;;;;;;5033898;28;20582;-51
2023/04/23 04:28:41;;;;;;;10.23;7.07;;;10.20;99.90;;;;;;5017599;28;20228;-55
2023/04/23 04:31:09;;;;;;;10.07;6.53;;;10.30;99.90;;;;;;5039530;28;20203;-52
2023/04/23 04:33:38;;;;;;;8.90;6.73;;;10.30;99.90;;;;;;5026231;28;20199;-54
2023/04/23 04:36:07;;;;;;;7.17;6.50;;;10.20;99.90;;;;;;5037686;28;20318;-54
2023/04/23 04:38:36;;;;;;;10.30;6.77;;;10.20;99.90;;;;;;5028110;28;20326;-56
2023/04/23 04:41:03;;;;;;;10.33;6.27;;;10.20;99.90;;;;;;5036822;28;20238;-50
2023/04/23 04:43:33;;;;;;;7.97;5.93;;;10.20;99.90;;;;;;5014307;28;20208;-51
2023/04/23 04:46:00;;;;;;;8.23;5.97;;;10.20;99.90;;;;;;5034985;28;20218;-50
2023/04/23 04:48:27;;;;;;;11.90;6.23;;;10.10;99.90;;;;;;5013685;28;21267;-53
2023/04/23 04:50:53;;;;;;;8.60;6.50;;;10.20;99.90;;;;;;5016424;28;20204;-53
2023/04/23 04:53:20;;;;;;;6.63;5.93;;;10.20;99.90;;;;;;5026718;28;20221;-56
2023/04/23 04:55:46;;;;;;;7.87;5.87;;;10.20;99.90;;;;;;5027011;28;21012;-53
2023/04/23 04:58:14;;;;;;;10.13;6.40;;;10.20;99.90;;;;;;5038056;28;20694;-52
2023/04/23 05:00:43;;;;;;;7.37;6.07;;;10.20;99.90;;;;;;5008735;28;20203;-49
2023/04/23 05:03:10;;;;;;;9.93;6.40;;;10.20;99.90;;;;;;5032740;28;20203;-52
2023/04/23 05:05:37;;;;;;;10.17;6.27;;;10.30;99.90;;;;;;5028033;28;20223;-51
2023/04/23 05:08:04;;;;;;;8.67;7.10;;;10.20;99.90;;;;;;5029368;28;20220;-55
2023/04/23 05:10:31;;;;;;;9.37;7.10;;;10.30;99.90;;;;;;5030105;28;20572;-54
2023/04/23 05:12:58;;;;;;;10.30;7.67;;;10.30;99.90;;;;;;5018186;28;20204;-54
2023/04/23 05:15:25;;;;;;;11.13;8.10;;;10.20;99.90;;;;;;5013389;28;20927;-52
2023/04/23 05:17:53;;;;;;;11.53;7.60;;;10.20;99.90;;;;;;5032277;28;20184;-57
2023/04/23 05:20:21;;;;;;;11.37;8.40;;;10.20;99.90;;;;;;5028174;28;20610;-51
2023/04/23 05:22:48;;;;;;;10.30;9.20;;;10.20;99.90;;;;;;5039094;28;20187;-50
2023/04/23 05:25:15;;;;;;;11.70;8.93;;;10.30;99.90;;;;;;5030634;28;20223;-53
2023/04/23 05:27:42;;;;;;;10.53;8.67;;;10.30;99.90;;;;;;5020023;28;20254;-49
2023/04/23 05:30:10;;;;;;;14.30;9.87;;;10.20;99.90;;;;;;5003306;28;20212;-55
2023/04/23 05:32:38;;;;;;;12.47;9.30;;;10.30;99.90;;;;;;5034464;28;20215;-56
2023/04/23 05:35:07;;;;;;;11.00;9.87;;;10.30;99.90;;;;;;5026452;28;20224;-53
2023/04/23 05:37:33;;;;;;;10.30;8.60;;;10.30;99.90;;;;;;5014867;28;20261;-55
2023/04/23 05:40:01;;;;;;;9.80;8.80;;;10.20;99.90;;;;;;5020420;28;20200;-51
2023/04/23 05:42:29;;;;;;;10.77;8.40;;;10.20;99.90;;;;;;5017888;28;20207;-50
2023/04/23 05:44:56;;;;;;;10.27;7.97;;;10.20;99.90;;;;;;5002377;28;20227;-53
2023/04/23 05:47:23;;;;;;;9.63;7.47;;;10.20;99.90;;;;;;5029510;28;20215;-54
2023/04/23 05:49:50;;;;;;;8.20;7.30;;;10.20;99.90;;;;;;5025118;28;20903;-53
2023/04/23 05:52:18;;;;;;;7.80;6.53;;;10.20;99.90;;;;;;5018682;28;20204;-49
2023/04/23 05:54:45;;;;;;;8.53;6.83;;;10.20;99.90;;;;;;5020648;28;20266;-53
2023/04/23 05:57:12;;;;;;;6.90;6.20;;;10.20;99.90;;;;;;5014114;28;20199;-52
2023/04/23 05:59:39;;;;;;;6.23;5.67;;;10.20;99.90;;;;;;5004317;28;21164;-54
2023/04/23 06:02:06;;;;;;;6.87;6.27;;;10.10;99.90;;;;;;5029814;28;20206;-52
2023/04/23 06:04:33;;;;;;;8.93;7.20;;;10.20;99.90;;;;;;5022857;28;20218;-49
2023/04/23 06:06:59;;;;;;;8.63;7.73;;;10.20;99.90;;;;;;5022517;28;20237;-53
2023/04/23 06:09:27;;;;;;;11.57;7.37;;;10.20;99.90;;;;;;5022533;28;20184;-50
2023/04/23 06:11:54;;;;;;;7.83;7.07;;;10.20;99.90;;;;;;5024579;28;20207;-54
2023/04/23 06:14:21;;;;;;;12.00;7.90;;;10.20;99.90;;;;;;5035348;28;20218;-55
2023/04/23 06:16:49;;;;;;;10.17;7.07;;;10.20;99.90;;;;;;5014751;28;20282;-47
2023/04/23 06:19:18;;;;;;;10.23;7.47;;;10.20;99.90;;;;;;5020918;28;20202;-51
2023/04/23 06:21:45;;;;;;;8.63;7.33;;;10.20;99.90;;;;;;5015021;28;20212;-47
2023/04/23 06:24:11;;;;;;;10.53;7.93;;;10.20;99.90;;;;;;5021567;28;20199;-51
2023/04/23 06:26:39;;;;;;;9.60;6.80;;;10.30;99.90;;;;;;5025969;28;20208;-48
2023/04/23 06:29:13;;;;;;;9.83;7.67;;;10.30;99.90;;;;;;5027680;28;20257;-48
2023/04/23 06:31:51;;;;;;;7.70;6.87;;;10.30;99.90;;;;;;5004212;28;20689;-50
2023/04/23 06:34:18;;;;;;;11.30;7.30;;;10.40;99.90;;;;;;5028973;28;20231;-49
2023/04/23 06:36:45;;;;;;;8.17;6.80;;;10.40;99.90;;;;;;5013194;28;20265;-49
2023/04/23 06:39:12;;;;;;;10.50;7.43;;;10.40;99.90;;;;;;5020406;28;20281;-51
2023/04/23 06:41:40;;;;;;;11.27;6.90;;;10.40;99.90;;;;;;5027939;28;21326;-51
2023/04/23 06:44:13;;;;;;;8.67;6.47;;;10.50;99.90;;;;;;5026186;28;20195;-47
2023/04/23 06:46:47;;;;;;;7.53;6.80;;;10.40;99.90;;;;;;5009090;28;20222;-46
2023/04/23 06:49:14;;;;;;;8.90;6.70;;;10.50;99.90;;;;;;5026248;28;20207;-51
2023/04/23 06:51:41;;;;;;;7.70;6.43;;;10.50;99.90;;;;;;5024876;28;20294;-48
2023/04/23 06:54:07;;;;;;;7.77;6.30;;;10.50;99.90;;;;;;5023427;28;20200;-50
2023/04/23 06:56:35;;;;;;;8.27;6.70;;;10.70;99.90;;;;;;5040331;28;20288;-50
2023/04/23 06:59:03;;;;;;;8.00;5.97;;;10.70;99.90;;;;;;5025471;28;20226;-49
2023/04/23 07:01:32;;;;;;;9.03;6.77;;;10.80;99.90;;;;;;5032054;28;20192;-52
2023/04/23 07:03:59;;;;;;;7.10;6.40;;;10.80;99.90;;;;;;5000896;28;20204;-51
2023/04/23 07:06:27;;;;;;;9.23;5.80;;;10.80;99.90;;;;;;5031751;28;20196;-51
2023/04/23 07:08:53;;;;;;;7.90;5.53;;;10.80;99.90;;;;;;5023277;28;20334;-49
2023/04/23 07:11:20;;;;;;;9.17;5.93;;;10.70;99.90;;;;;;5032824;28;20569;-49
2023/04/23 07:13:47;;;;;;;6.93;6.00;;;10.70;99.90;;;;;;5026001;28;20215;-51
2023/04/23 07:16:15;;;;;;;7.10;6.40;;;10.70;99.90;;;;;;5033909;28;20229;-52
2023/04/23 07:18:42;;;;;;;6.13;5.40;;;10.80;99.90;;;;;;5007589;28;20219;-46
2023/04/23 07:21:08;;;;;;;6.80;5.90;;;10.90;99.90;;;;;;5028534;28;20207;-47
2023/04/23 07:23:35;;;;;;;8.23;6.40;;;10.80;99.90;;;;;;5029734;28;20266;-47
2023/04/23 07:26:03;;;;;;;6.83;6.17;;;10.80;99.90;;;;;;5026536;28;20211;-46
2023/04/23 07:28:31;;;;;;;8.87;5.67;;;10.80;99.90;;;;;;5034513;28;20220;-49
2023/04/23 07:30:57;;;;;;;7.60;5.93;;;10.90;99.90;;;;;;5021115;28;20828;-50
2023/04/23 07:33:25;;;;;;;7.90;5.73;;;10.90;99.90;;;;;;5002894;28;20839;-51
2023/04/23 07:35:52;;;;;;;7.73;5.80;;;11.00;99.90;;;;;;5028257;28;20296;-49
2023/04/23 07:38:19;;;;;;;7.27;5.50;;;11.00;99.90;;;;;;5021412;28;20255;-45
2023/04/23 07:40:46;;;;;;;7.33;5.73;;;10.90;99.90;;;;;;5028501;28;20781;-46
2023/04/23 07:43:15;;;;;;;7.30;5.90;;;11.00;99.90;;;;;;5033973;28;20254;-47
2023/04/23 07:45:42;;;;;;;6.23;5.13;;;11.00;99.90;;;;;;5014698;28;20223;-49
2023/04/23 07:48:12;;;;;;;6.47;5.80;;;11.10;99.90;;;;;;5019841;28;20226;-49
2023/04/23 07:50:40;;;;;;;7.03;5.80;;;11.20;99.90;;;;;;5012000;28;20225;-49
2023/04/23 07:53:08;;;;;;;5.83;5.23;;;11.20;99.90;;;;;;5019474;28;21508;-46
2023/04/23 07:55:35;;;;;;;6.37;5.40;;;11.40;99.90;;;;;;5023094;28;20220;-46
2023/04/23 07:58:02;;;;;;;7.90;5.27;;;11.40;99.90;;;;;;5030279;28;20195;-49
2023/04/23 08:00:29;;;;;;;6.87;6.20;;;11.40;99.90;;;;;;5013384;28;20206;-44
2023/04/23 08:02:56;;;;;;;7.40;5.03;;;11.40;99.90;;;;;;5026344;28;20529;-47
2023/04/23 08:05:22;;;;;;;6.77;5.00;;;11.50;99.90;;;;;;5018841;28;20227;-51
2023/04/23 08:07:50;;;;;;;8.20;5.93;;;11.50;99.90;;;;;;5024489;28;20222;-44
2023/04/23 08:10:17;;;;;;;6.53;5.80;;;11.70;99.90;;;;;;5031563;28;20270;-47
2023/04/23 08:12:44;;;;;;;7.50;5.97;;;11.70;99.90;;;;;;5036130;28;20191;-50
2023/04/23 08:15:12;;;;;;;7.93;6.07;;;11.70;99.90;;;;;;5017508;28;20227;-46
2023/04/23 08:17:41;;;;;;;9.00;5.40;;;11.70;99.90;;;;;;5035346;28;20282;-48
2023/04/23 08:20:09;;;;;;;9.93;5.40;;;11.70;99.90;;;;;;5007088;28;20235;-45
2023/04/23 08:22:35;;;;;;;7.60;5.87;;;11.90;99.90;;;;;;5037107;28;20351;-45
2023/04/23 08:25:04;;;;;;;7.43;5.20;;;11.90;99.90;;;;;;5011057;28;20235;-48
2023/04/23 08:27:31;;;;;;;6.47;5.87;;;11.90;99.90;;;;;;5019368;28;20223;-48
2023/04/23 08:29:58;;;;;;;8.20;5.70;;;12.00;99.90;;;;;;5016229;28;20343;-45
2023/04/23 08:32:25;;;;;;;6.43;5.70;;;12.00;99.90;;;;;;5036557;28;20196;-47
2023/04/23 08:34:52;;;;;;;6.00;5.50;;;12.10;99.90;;;;;;5012447;28;20219;-49
2023/04/23 08:37:19;;;;;;;6.60;5.40;;;12.10;99.90;;;;;;5029846;28;20219;-50
2023/04/23 08:39:46;;;;;;;6.40;5.70;;;12.20;99.90;;;;;;5019479;28;20207;-46
2023/04/23 08:42:23;;;;;;;5.93;5.03;;;12.30;99.90;;;;;;5006539;28;20203;-51
2023/04/23 08:44:52;;;;;;;6.23;5.20;;;12.30;99.90;;;;;;5025751;28;20293;-49
2023/04/23 08:47:24;;;;;;;6.00;5.40;;;12.30;99.90;;;;;;5027184;28;20204;-46
2023/04/23 08:49:53;;;;;;;6.27;5.40;;;12.30;99.90;;;;;;5028991;28;20726;-47
2023/04/23 08:52:25;;;;;;;6.17;5.50;;;12.40;99.90;;;;;;5007592;28;20253;-48
2023/04/23 08:54:53;;;;;;;6.17;5.20;;;12.40;99.90;;;;;;5021188;28;20220;-49
2023/04/23 08:57:23;;;;;;;8.63;5.90;;;12.50;99.90;;;;;;5017957;28;20665;-47
2023/04/23 08:59:50;;;;;;;7.23;5.40;;;12.40;99.90;;;;;;5030304;28;20198;-45
2023/04/23 09:02:18;;;;;;;5.60;4.77;;;12.30;99.90;;;;;;5027521;28;20204;-51
2023/04/23 09:04:46;;;;;;;6.00;4.60;;;12.30;99.90;;;;;;5028536;28;20740;-50
2023/04/23 09:07:14;;;;;;;8.27;5.23;;;12.40;99.90;;;;;;5008190;28;20671;-46
2023/04/23 09:09:41;;;;;;;6.40;5.03;;;12.50;99.90;;;;;;5030931;28;20222;-46
2023/04/23 09:12:09;;;;;;;5.23;4.73;;;12.60;99.90;;;;;;5015571;28;20559;-50
2023/04/23 09:14:37;;;;;;;7.43;4.70;;;12.80;99.90;;;;;;5039122;28;20210;-48
2023/04/23 09:17:04;;;;;;;10.50;5.47;;;12.90;99.90;;;;;;5023656;28;20278;-50
2023/04/23 09:19:31;;;;;;;5.27;4.70;;;12.90;99.90;;;;;;5039228;28;20207;-46
2023/04/23 09:22:00;;;;;;;6.97;4.67;;;13.00;99.90;;;;;;5037243;28;20694;-48
2023/04/23 09:24:27;;;;;;;6.70;5.33;;;13.10;99.90;;;;;;5014849;28;20222;-49
2023/04/23 09:26:55;;;;;;;5.93;4.00;;;13.10;99.90;;;;;;5019136;28;20207;-51
2023/04/23 09:29:23;;;;;;;8.00;4.77;;;13.30;99.90;;;;;;5032349;28;20558;-47
2023/04/23 09:31:54;;;;;;;5.50;4.90;;;13.30;99.90;;;;;;5033439;28;20249;-46
2023/04/23 09:34:23;;;;;;;6.47;5.03;;;13.40;99.90;;;;;;5039322;28;20241;-46
2023/04/23 09:36:52;;;;;;;5.63;4.93;;;13.60;99.90;;;;;;5033440;28;20199;-49
2023/04/23 09:39:22;;;;;;;5.87;4.47;;;13.60;99.90;;;;;;5006391;28;20210;-48
2023/04/23 09:42:10;;;;;;;10.20;5.17;;;13.60;99.90;;;;;;5003312;28;20223;-46
2023/04/23 09:44:36;;;;;;;6.53;5.10;;;13.60;99.90;;;;;;5031213;28;20300;-49
2023/04/23 09:47:09;;;;;;;6.10;5.00;;;13.80;99.90;;;;;;5017178;28;20207;-51
2023/04/23 09:49:46;;;;;;;6.00;4.87;;;13.80;99.90;;;;;;5029473;28;20220;-50
2023/04/23 09:52:13;;;;;;;5.90;5.07;;;13.80;99.90;;;;;;5014571;28;20757;-49
2023/04/23 09:54:45;;;;;;;6.83;5.33;;;13.80;99.90;;;;;;5004681;28;20232;-48
2023/04/23 09:57:11;;;;;;;7.57;4.60;;;13.80;99.90;;;;;;5018767;28;20893;-47
2023/04/23 09:59:38;;;;;;;5.37;4.87;;;13.90;99.90;;;;;;5025942;28;20199;-52
2023/04/23 10:02:06;;;;;;;5.43;4.87;;;13.90;99.90;;;;;;5018990;28;20687;-50
2023/04/23 10:04:35;;;;;;;6.07;5.33;;;14.00;99.90;;;;;;5018668;28;20223;-48
2023/04/23 10:07:07;;;;;;;6.20;5.60;;;14.00;99.90;;;;;;5021566;28;20717;-48
2023/04/23 10:09:34;;;;;;;6.97;5.50;;;14.10;99.90;;;;;;5031154;28;20335;-46
2023/04/23 10:12:23;;;;;;;7.47;5.43;;;14.20;99.90;;;;;;5020886;28;20951;-47
2023/04/23 10:14:52;;;;;;;6.20;5.60;;;14.20;99.90;;;;;;5018972;28;20220;-49
2023/04/23 10:17:19;;;;;;;6.03;5.13;;;14.10;99.90;;;;;;5023909;28;20264;-50
2023/04/23 10:20:11;;;;;;;6.80;5.90;;;14.10;99.90;;;;;;5010726;28;20877;-49
2023/04/23 10:22:40;;;;;;;5.63;5.13;;;14.20;99.90;;;;;;5027768;28;20678;-51
2023/04/23 10:25:29;;;;;;;5.90;5.40;;;14.20;99.90;;;;;;5012619;28;20250;-50
2023/04/23 10:28:02;;;;;;;7.40;5.80;;;14.30;99.90;;;;;;5029827;28;20212;-49
2023/04/23 10:30:30;;;;;;;8.83;6.43;;;14.30;99.90;;;;;;5014305;28;20219;-50
2023/04/23 10:33:01;;;;;;;6.80;5.70;;;14.30;99.90;;;;;;5015251;28;20915;-50
2023/04/23 10:35:31;;;;;;;6.67;6.00;;;14.30;99.90;;;;;;5014795;28;20223;-47
2023/04/23 10:37:58;;;;;;;6.30;5.67;;;14.50;99.90;;;;;;5025543;28;20289;-52
2023/04/23 10:40:30;;;;;;;6.73;5.70;;;14.60;99.90;;;;;;5015781;28;20250;-50
2023/04/23 10:42:58;;;;;;;6.43;5.90;;;14.60;99.90;;;;;;5006274;28;20226;-51
2023/04/23 10:45:25;;;;;;;7.37;6.60;;;14.70;99.90;;;;;;5011409;28;20227;-51
2023/04/23 10:47:53;;;;;;;6.87;6.00;;;14.60;99.90;;;;;;5015834;28;20203;-49
2023/04/23 10:50:22;;;;;;;7.33;6.70;;;14.80;99.90;;;;;;5018218;28;20224;-49
2023/04/23 10:52:53;;;;;;;7.77;6.97;;;15.00;99.90;;;;;;5028929;28;21194;-51
2023/04/23 10:55:21;;;;;;;9.30;6.77;;;15.00;99.90;;;;;;5015456;28;20366;-49
2023/04/23 10:57:59;;;;;;;7.50;6.30;;;15.20;99.90;;;;;;4997704;28;20216;-52
2023/04/23 11:00:26;;;;;;;8.93;6.30;;;15.30;99.90;;;;;;5011705;28;20208;-50
2023/04/23 11:02:56;;;;;;;6.63;6.03;;;15.30;99.90;;;;;;5013158;28;20213;-49
2023/04/23 11:05:24;;;;;;;6.77;6.10;;;15.20;99.90;;;;;;5018112;28;20224;-53
2023/04/23 11:08:06;;;;;;;6.37;5.77;;;15.20;99.90;;;;;;5037476;28;20252;-52
2023/04/23 11:10:34;;;;;;;6.60;6.03;;;15.30;99.90;;;;;;5029146;28;20208;-47
2023/04/23 11:13:23;;;;;;;7.13;6.43;;;15.50;99.90;;;;;;4993431;28;20212;-51
2023/04/23 11:16:12;;;;;;;6.40;5.80;;;15.60;99.90;;;;;;5010790;28;20228;-51
2023/04/23 11:19:02;;;;;;;7.00;6.30;;;15.50;99.90;;;;;;5024103;28;20204;-53
2023/04/23 11:21:58;;;;;;;7.23;6.50;;;15.60;99.90;;;;;;5021601;28;20217;-49
2023/04/23 11:24:27;;;;;;;7.77;6.97;;;15.80;99.90;;;;;;5030914;28;20219;-48
2023/04/23 11:26:55;;;;;;;8.80;7.40;;;15.90;99.90;;;;;;5020676;28;20199;-50
2023/04/23 11:29:46;;;;;;;8.97;8.00;;;15.90;99.90;;;;;;4995803;28;20239;-51
2023/04/23 11:32:17;;;;;;;11.07;7.90;;;15.80;99.90;;;;;;5012035;28;20335;-52
2023/04/23 11:34:46;;;;;;;8.70;7.90;;;16.00;99.90;;;;;;5030515;28;20574;-50
2023/04/23 11:37:14;;;;;;;8.90;7.40;;;16.30;99.90;;;;;;5018813;28;20199;-50
2023/04/23 11:39:44;;;;;;;10.43;7.77;;;16.50;99.90;;;;;;5031504;28;20246;-47
2023/04/23 11:42:10;;;;;;;9.23;8.33;;;16.70;99.90;;;;;;5019073;28;20424;-49
2023/04/23 11:44:38;;;;;;;8.53;7.73;;;16.60;99.90;;;;;;4993747;28;20253;-51
2023/04/23 11:47:07;;;;;;;8.77;7.87;;;16.50;99.90;;;;;;5025060;28;20237;-51
2023/04/23 11:49:36;;;;;;;9.73;8.67;;;16.60;99.90;;;;;;5032858;28;20247;-52
2023/04/23 11:52:03;;;;;;;10.10;8.87;;;16.60;99.90;;;;;;5027960;28;20754;-51
2023/04/23 11:54:30;;;;;;;9.37;8.07;;;16.70;99.90;;;;;;5031251;28;20211;-49
2023/04/23 11:56:59;;;;;;;10.03;8.97;;;16.90;99.90;;;;;;5019040;28;20203;-51
2023/04/23 11:59:26;;;;;;;12.47;8.60;;;17.10;99.90;;;;;;5000116;28;20204;-50
2023/04/23 12:01:55;;;;;;;10.37;8.40;;;17.00;99.90;;;;;;5026094;28;20219;-54
2023/04/23 12:04:23;;;;;;;9.27;8.37;;;17.30;99.90;;;;;;5014171;28;20230;-50
2023/04/23 12:06:58;;;;;;;8.20;7.37;;;17.40;99.90;;;;;;4939097;28;20193;-46
2023/04/23 12:10:17;;;;;;;8.33;7.60;;;17.30;99.90;;;;;;4794917;28;20666;-49
2023/04/23 12:13:06;;;;;;;8.50;6.80;;;17.30;99.90;;;;;;4798493;28;20624;-49
2023/04/23 12:18:31;;;;;;;9.30;7.57;;;17.40;99.90;;;;;;4973351;23;20263;-50
2023/04/23 12:21:05;;;;;;;8.10;7.37;;;17.30;99.90;;;;;;4990931;28;20353;-51
2023/04/23 12:23:35;;;;;;;10.83;6.97;;;17.10;99.90;;;;;;5004162;28;20203;-51
2023/04/23 12:26:02;;;;;;;8.07;6.03;;;17.00;99.90;;;;;;5012905;28;20248;-54
2023/04/23 12:28:31;;;;;;;7.83;7.13;;;17.30;99.90;;;;;;5009410;28;20211;-57
2023/04/23 12:31:00;;;;;;;8.60;7.40;;;17.50;99.90;;;;;;4989217;28;20219;-54
2023/04/23 12:33:29;;;;;;;7.43;6.70;;;17.70;99.90;;;;;;5011754;28;20380;-51
2023/04/23 12:35:56;;;;;;;6.93;5.80;;;17.90;99.90;;;;;;5014562;28;20959;-55
2023/04/23 12:38:25;;;;;;;8.50;5.33;;;17.90;99.90;;;;;;5006808;28;20203;-51
2023/04/23 12:40:52;;;;;;;6.10;5.60;;;18.10;99.90;;;;;;5005311;28;20277;-54
2023/04/23 12:43:18;;;;;;;5.80;5.30;;;18.10;99.70;;;;;;5009283;28;20273;-54
2023/04/23 12:45:47;;;;;;;6.23;5.70;;;18.10;98.60;;;;;;5005625;28;20224;-52
2023/04/23 12:48:14;;;;;;;5.60;5.00;;;18.20;99.10;;;;;;4992744;28;20234;-48
2023/04/23 12:50:41;;;;;;;6.47;4.60;;;18.40;99.90;;;;;;5008192;28;20339;-58
2023/04/23 12:53:08;;;;;;;5.93;5.10;;;18.40;98.50;;;;;;5009782;28;20208;-45
2023/04/23 12:55:38;;;;;;;5.00;4.60;;;18.30;97.50;;;;;;5005131;28;20239;-56